createdAt,value
2018-08-04T00:01:07.081Z,24.80
2018-08-04T00:03:35.345Z,24.90
2018-08-04T00:06:03.548Z,24.80
2018-08-04T00:08:31.836Z,24.90
2018-08-04T00:11:00.159Z,24.90
2018-08-04T00:13:28.392Z,24.90
2018-08-04T00:15:56.685Z,24.90
2018-08-04T00:18:25.301Z,24.90
2018-08-04T00:20:53.625Z,24.90
2018-08-04T00:23:21.833Z,24.90
2018-08-04T00:25:50.061Z,25.00
2018-08-04T00:28:18.283Z,24.80
2018-08-04T00:30:46.527Z,24.50
2018-08-04T00:33:15.097Z,24.40
2018-08-04T00:35:49.732Z,24.40
2018-08-04T00:38:17.998Z,24.50
2018-08-04T00:40:46.574Z,24.50
2018-08-04T00:43:14.776Z,24.50
2018-08-04T00:45:42.993Z,24.40
2018-08-04T00:48:11.395Z,24.40
2018-08-04T00:50:39.613Z,24.40
2018-08-04T00:53:08.142Z,24.40
2018-08-04T00:55:36.360Z,24.50
2018-08-04T00:58:04.557Z,24.50
2018-08-04T01:00:32.804Z,24.50
2018-08-04T01:03:01.353Z,24.50
2018-08-04T01:05:29.586Z,24.50
2018-08-04T01:07:57.794Z,24.30
2018-08-04T01:10:26.000Z,24.30
2018-08-04T01:12:54.198Z,24.20
2018-08-04T01:15:22.455Z,24.30
2018-08-04T01:17:50.702Z,24.30
2018-08-04T01:20:19.496Z,24.20
2018-08-04T01:22:48.021Z,24.10
2018-08-04T01:25:16.400Z,24.10
2018-08-04T01:27:51.202Z,24.00
2018-08-04T01:30:19.440Z,24.00
2018-08-04T01:32:47.861Z,24.00
2018-08-04T01:35:16.082Z,24.00
2018-08-04T01:37:44.304Z,23.90
2018-08-04T01:40:12.509Z,23.90
2018-08-04T01:42:40.737Z,23.90
2018-08-04T01:45:09.052Z,23.80
2018-08-04T01:47:37.282Z,23.70
2018-08-04T01:50:05.728Z,23.70
2018-08-04T01:52:33.994Z,23.70
2018-08-04T01:55:02.449Z,23.80
2018-08-04T01:57:31.128Z,23.80
2018-08-04T02:02:27.323Z,23.90
2018-08-04T02:04:55.532Z,23.80
2018-08-04T02:07:23.773Z,23.70
2018-08-04T02:09:52.188Z,23.70
2018-08-04T02:12:20.416Z,23.70
2018-08-04T02:14:48.619Z,23.70
2018-08-04T02:17:17.232Z,23.60
2018-08-04T02:19:45.468Z,23.60
2018-08-04T02:22:14.481Z,23.40
2018-08-04T02:24:42.667Z,23.30
2018-08-04T02:27:10.887Z,23.30
2018-08-04T02:29:39.125Z,23.30
2018-08-04T02:32:07.369Z,23.30
2018-08-04T02:37:03.579Z,23.20
2018-08-04T02:39:31.924Z,23.10
2018-08-04T02:42:00.141Z,23.10
2018-08-04T02:44:28.456Z,23.10
2018-08-04T02:46:56.699Z,23.10
2018-08-04T02:49:24.925Z,23.10
2018-08-04T02:51:53.198Z,22.90
2018-08-04T02:54:21.421Z,22.70
2018-08-04T02:56:49.620Z,22.70
2018-08-04T02:59:18.860Z,22.70
2018-08-04T03:01:47.089Z,22.70
2018-08-04T03:04:15.320Z,22.60
2018-08-04T03:06:43.549Z,22.60
2018-08-04T03:09:21.765Z,22.60
2018-08-04T03:11:50.041Z,22.60
2018-08-04T03:14:18.281Z,22.50
2018-08-04T03:16:46.554Z,22.30
2018-08-04T03:19:15.294Z,22.20
2018-08-04T03:21:43.554Z,22.20
2018-08-04T03:24:11.782Z,22.20
2018-08-04T03:26:40.023Z,22.30
2018-08-04T03:29:08.272Z,22.30
2018-08-04T03:31:36.526Z,22.20
2018-08-04T03:34:04.737Z,22.30
2018-08-04T03:36:33.034Z,22.20
2018-08-04T03:39:01.351Z,22.20
2018-08-04T03:41:29.578Z,22.20
2018-08-04T03:43:57.940Z,22.10
2018-08-04T03:46:26.729Z,22.00
2018-08-04T03:48:55.008Z,22.00
2018-08-04T03:51:23.236Z,22.10
2018-08-04T03:53:51.499Z,22.10
2018-08-04T03:56:19.751Z,22.00
2018-08-04T03:58:50.107Z,21.90
2018-08-04T04:01:18.361Z,21.80
2018-08-04T04:03:46.633Z,21.70
2018-08-04T04:06:15.401Z,21.80
2018-08-04T04:08:43.640Z,21.60
2018-08-04T04:11:12.032Z,21.50
2018-08-04T04:13:40.362Z,21.50
2018-08-04T04:16:09.381Z,21.40
2018-08-04T04:18:38.436Z,21.40
2018-08-04T04:21:07.336Z,21.50
2018-08-04T04:23:35.662Z,21.60
2018-08-04T04:26:04.331Z,21.70
2018-08-04T04:28:33.643Z,21.80
2018-08-04T04:31:02.319Z,21.80
2018-08-04T04:33:30.873Z,21.90
2018-08-04T04:35:59.502Z,21.90
2018-08-04T04:38:27.976Z,22.00
2018-08-04T04:40:56.658Z,22.00
2018-08-04T04:43:25.949Z,22.00
2018-08-04T04:45:54.736Z,22.20
2018-08-04T04:48:23.274Z,22.30
2018-08-04T04:50:51.608Z,22.40
2018-08-04T04:53:19.994Z,22.40
2018-08-04T04:55:48.398Z,22.40
2018-08-04T04:58:16.701Z,22.40
2018-08-04T05:00:45.000Z,22.50
2018-08-04T05:03:14.694Z,22.60
2018-08-04T05:05:43.199Z,22.60
2018-08-04T05:08:11.623Z,22.70
2018-08-04T05:10:40.216Z,22.60
2018-08-04T05:13:08.913Z,22.60
2018-08-04T05:15:37.501Z,22.50
2018-08-04T05:18:06.097Z,22.60
2018-08-04T05:20:34.599Z,22.70
2018-08-04T05:23:03.375Z,22.70
2018-08-04T05:25:31.965Z,22.80
2018-08-04T05:28:00.507Z,22.70
2018-08-04T05:30:29.091Z,22.60
2018-08-04T05:32:57.725Z,22.50
2018-08-04T05:35:26.255Z,22.50
2018-08-04T05:37:54.790Z,22.70
2018-08-04T05:40:23.365Z,22.90
2018-08-04T05:42:51.926Z,23.00
2018-08-04T05:45:20.597Z,23.10
2018-08-04T05:47:50.024Z,23.10
2018-08-04T05:50:18.503Z,23.20
2018-08-04T05:52:46.989Z,23.20
2018-08-04T05:55:15.506Z,23.20
2018-08-04T05:57:44.121Z,23.40
2018-08-04T06:00:12.711Z,23.50
2018-08-04T06:02:41.342Z,23.60
2018-08-04T06:05:10.414Z,23.70
2018-08-04T06:07:38.982Z,23.70
2018-08-04T06:10:07.445Z,23.70
2018-08-04T06:12:36.052Z,23.80
2018-08-04T06:15:04.809Z,23.90
2018-08-04T06:17:33.456Z,23.90
2018-08-04T06:20:02.123Z,23.90
2018-08-04T06:22:30.701Z,23.90
2018-08-04T06:24:59.994Z,24.00
2018-08-04T06:27:28.605Z,24.00
2018-08-04T06:29:57.145Z,24.10
2018-08-04T06:32:25.706Z,24.20
2018-08-04T06:34:54.403Z,24.30
2018-08-04T06:37:24.028Z,24.30
2018-08-04T06:39:52.717Z,24.50
2018-08-04T06:42:21.352Z,24.60
2018-08-04T06:44:49.998Z,24.60
2018-08-04T06:47:18.557Z,24.80
2018-08-04T06:49:47.140Z,25.00
2018-08-04T06:52:15.648Z,25.20
2018-08-04T06:54:44.295Z,25.30
2018-08-04T06:57:14.151Z,25.40
2018-08-04T06:59:42.795Z,25.50
2018-08-04T07:02:11.354Z,25.80
2018-08-04T07:04:39.974Z,26.00
2018-08-04T07:07:08.940Z,25.60
2018-08-04T07:09:37.609Z,25.80
2018-08-04T07:12:06.263Z,26.10
2018-08-04T07:14:34.874Z,26.50
2018-08-04T07:17:03.577Z,27.00
2018-08-04T07:19:32.387Z,27.00
2018-08-04T07:22:02.272Z,27.40
2018-08-04T07:24:32.153Z,27.80
2018-08-04T07:27:00.835Z,27.80
2018-08-04T07:29:29.405Z,27.90
2018-08-04T07:31:58.009Z,28.30
2018-08-04T07:34:26.622Z,28.40
2018-08-04T07:36:55.310Z,28.80
2018-08-04T07:39:24.069Z,29.00
2018-08-04T07:41:52.788Z,30.00
2018-08-04T07:44:21.510Z,31.20
2018-08-04T07:46:50.200Z,32.30
2018-08-04T07:49:18.823Z,33.80
2018-08-04T07:51:47.477Z,33.70
2018-08-04T07:54:16.093Z,32.90
2018-08-04T07:56:44.827Z,32.70
2018-08-04T07:59:13.480Z,33.20
2018-08-04T08:01:42.628Z,32.60
2018-08-04T08:04:11.319Z,32.80
2018-08-04T08:06:39.970Z,35.80
2018-08-04T08:09:12.180Z,36.70
2018-08-04T08:11:40.974Z,39.50
2018-08-04T08:14:09.715Z,39.90
2018-08-04T08:19:06.964Z,44.40
2018-08-04T08:21:35.685Z,44.90
2018-08-04T08:24:04.443Z,44.80
2018-08-04T08:26:34.592Z,44.00
2018-08-04T08:29:03.303Z,43.50
2018-08-04T08:31:32.079Z,45.50
2018-08-04T08:34:00.803Z,46.40
2018-08-04T08:36:29.823Z,48.90
2018-08-04T08:38:58.519Z,49.50
2018-08-04T08:41:27.207Z,50.10
2018-08-04T08:43:57.151Z,51.40
2018-08-04T08:46:25.833Z,50.40
2018-08-04T08:48:54.586Z,51.50
2018-08-04T08:51:23.370Z,53.10
2018-08-04T08:53:52.979Z,54.60
2018-08-04T08:56:23.269Z,55.20
2018-08-04T08:58:52.049Z,56.20
2018-08-04T09:01:20.763Z,55.70
2018-08-04T09:03:52.044Z,56.00
2018-08-04T09:06:20.888Z,56.90
2018-08-04T09:08:49.797Z,56.80
2018-08-04T09:11:19.256Z,55.30
2018-08-04T09:13:47.891Z,56.00
2018-08-04T09:16:16.502Z,56.40
2018-08-04T09:18:45.214Z,57.30
2018-08-04T09:21:14.117Z,56.80
2018-08-04T09:23:42.764Z,52.20
2018-08-04T09:26:11.682Z,54.40
2018-08-04T09:28:40.470Z,54.70
2018-08-04T09:31:09.743Z,56.90
2018-08-04T09:33:42.714Z,55.70
2018-08-04T09:36:11.566Z,55.90
2018-08-04T09:38:41.211Z,57.60
2018-08-04T09:41:09.944Z,56.90
2018-08-04T09:43:38.668Z,56.90
2018-08-04T09:46:07.211Z,58.00
2018-08-04T09:48:35.839Z,57.30
2018-08-04T09:53:32.764Z,59.50
2018-08-04T09:56:01.482Z,59.60
2018-08-04T10:01:03.639Z,56.90
2018-08-04T10:03:33.518Z,55.90
2018-08-04T10:06:02.189Z,56.40
2018-08-04T10:08:30.770Z,58.00
2018-08-04T10:10:59.393Z,58.10
2018-08-04T10:13:27.902Z,58.60
2018-08-04T10:15:56.471Z,59.30
2018-08-04T10:18:25.086Z,59.80
2018-08-04T10:20:53.739Z,58.00
2018-08-04T10:23:24.515Z,59.60
2018-08-04T10:25:53.267Z,59.10
2018-08-04T10:28:21.955Z,58.80
2018-08-04T10:30:50.587Z,59.90
2018-08-04T10:33:19.194Z,59.80
2018-08-04T10:35:47.799Z,58.20
2018-08-04T10:38:16.436Z,58.30
2018-08-04T10:40:44.950Z,59.00
2018-08-04T10:43:13.520Z,57.60
2018-08-04T10:48:10.590Z,55.00
2018-08-04T10:50:39.171Z,55.60
2018-08-04T10:53:07.842Z,52.70
2018-08-04T10:55:36.740Z,54.80
2018-08-04T11:00:33.550Z,53.60
2018-08-04T11:03:02.416Z,51.50
2018-08-04T11:05:31.142Z,49.70
2018-08-04T11:07:59.825Z,46.90
2018-08-04T11:10:28.398Z,42.90
2018-08-04T11:12:57.041Z,40.90
2018-08-04T11:15:25.780Z,39.20
2018-08-04T11:17:55.342Z,39.40
2018-08-04T11:20:24.027Z,39.30
2018-08-04T11:22:52.630Z,37.80
2018-08-04T11:25:21.282Z,37.80
2018-08-04T11:27:50.758Z,38.40
2018-08-04T11:30:19.384Z,37.20
2018-08-04T11:32:48.173Z,37.60
2018-08-04T11:35:16.948Z,38.30
2018-08-04T11:37:45.735Z,40.60
2018-08-04T11:40:14.247Z,41.20
2018-08-04T11:42:43.003Z,41.50
2018-08-04T11:45:12.900Z,40.80
2018-08-04T11:50:10.906Z,39.50
2018-08-04T11:52:39.435Z,39.10
2018-08-04T11:55:08.111Z,38.60
2018-08-04T11:57:36.772Z,38.50
2018-08-04T12:02:33.880Z,37.50
2018-08-04T12:05:02.518Z,37.10
2018-08-04T12:07:31.455Z,37.00
2018-08-04T12:10:00.035Z,37.20
2018-08-04T12:12:28.682Z,37.20
2018-08-04T12:14:57.319Z,37.30
2018-08-04T12:17:26.614Z,37.50
2018-08-04T12:19:55.240Z,37.60
2018-08-04T12:22:23.775Z,37.30
2018-08-04T12:24:53.928Z,37.40
2018-08-04T12:27:22.760Z,37.10
2018-08-04T12:29:51.494Z,37.20
2018-08-04T12:32:20.012Z,37.40
2018-08-04T12:34:48.532Z,37.60
2018-08-04T12:37:17.130Z,37.40
2018-08-04T12:39:45.634Z,37.40
2018-08-04T12:44:44.359Z,37.30
2018-08-04T12:47:13.112Z,37.50
2018-08-04T12:49:42.575Z,37.50
2018-08-04T12:52:11.107Z,37.60
2018-08-04T12:54:39.669Z,37.40
2018-08-04T12:57:08.127Z,37.20
2018-08-04T12:59:36.696Z,36.80
2018-08-04T13:02:05.246Z,36.70
2018-08-04T13:04:33.921Z,36.70
2018-08-04T13:07:02.958Z,36.80
2018-08-04T13:09:31.642Z,37.00
2018-08-04T13:12:00.258Z,36.80
2018-08-04T13:14:28.820Z,36.80
2018-08-04T13:16:57.360Z,37.00
2018-08-04T13:19:28.527Z,36.90
2018-08-04T13:21:57.093Z,37.10
2018-08-04T13:24:25.641Z,37.20
2018-08-04T13:26:54.384Z,37.20
2018-08-04T13:29:23.254Z,37.00
2018-08-04T13:31:51.954Z,36.60
2018-08-04T13:34:20.607Z,36.50
2018-08-04T13:36:49.169Z,36.60
2018-08-04T13:39:17.655Z,36.60
2018-08-04T13:41:46.183Z,36.30
2018-08-04T13:44:14.782Z,36.40
2018-08-04T13:46:44.326Z,36.60
2018-08-04T13:49:13.003Z,36.60
2018-08-04T13:51:41.639Z,36.50
2018-08-04T13:54:10.203Z,36.50
2018-08-04T13:56:38.720Z,36.40
2018-08-04T13:59:07.262Z,36.30
2018-08-04T14:01:36.106Z,36.20
2018-08-04T14:04:04.769Z,36.00
2018-08-04T14:06:34.574Z,35.80
2018-08-04T14:09:03.286Z,35.70
2018-08-04T14:11:31.887Z,35.70
2018-08-04T14:14:00.524Z,35.70
2018-08-04T14:16:29.130Z,35.60
2018-08-04T14:18:57.635Z,35.60
2018-08-04T14:21:26.094Z,35.70
2018-08-04T14:23:54.917Z,35.90
2018-08-04T14:26:24.662Z,35.90
2018-08-04T14:28:53.302Z,36.00
2018-08-04T14:31:21.940Z,36.00
2018-08-04T14:33:50.508Z,36.00
2018-08-04T14:36:22.804Z,35.90
2018-08-04T14:38:51.390Z,36.10
2018-08-04T14:41:19.904Z,36.10
2018-08-04T14:43:48.415Z,36.10
2018-08-04T14:46:16.958Z,35.80
2018-08-04T14:48:45.539Z,35.70
2018-08-04T14:51:14.198Z,35.70
2018-08-04T14:53:42.819Z,35.50
2018-08-04T14:56:11.423Z,35.30
2018-08-04T14:58:40.117Z,35.30
2018-08-04T15:01:08.599Z,35.10
2018-08-04T15:03:37.094Z,35.20
2018-08-04T15:06:05.581Z,35.00
2018-08-04T15:08:36.185Z,34.60
2018-08-04T15:11:04.721Z,34.70
2018-08-04T15:13:33.230Z,34.90
2018-08-04T15:16:01.756Z,34.90
2018-08-04T15:18:30.910Z,34.70
2018-08-04T15:20:59.309Z,34.60
2018-08-04T15:23:27.747Z,34.60
2018-08-04T15:25:56.666Z,34.70
2018-08-04T15:28:25.292Z,34.60
2018-08-04T15:30:53.761Z,34.70
2018-08-04T15:33:22.380Z,34.70
2018-08-04T15:35:50.980Z,34.50
2018-08-04T15:38:19.448Z,34.50
2018-08-04T15:40:47.877Z,34.40
2018-08-04T15:43:16.284Z,34.30
2018-08-04T15:45:45.834Z,34.10
2018-08-04T15:48:15.498Z,33.90
2018-08-04T15:50:44.040Z,33.70
2018-08-04T15:53:12.527Z,33.70
2018-08-04T15:55:41.045Z,33.60
2018-08-04T15:58:09.483Z,33.60
2018-08-04T16:00:37.966Z,33.70
2018-08-04T16:03:06.497Z,33.70
2018-08-04T16:05:34.957Z,33.70
2018-08-04T16:08:03.617Z,33.70
2018-08-04T16:10:32.124Z,33.60
2018-08-04T16:13:00.565Z,33.50
2018-08-04T16:15:28.994Z,33.40
2018-08-04T16:17:57.466Z,33.40
2018-08-04T16:20:25.993Z,33.50
2018-08-04T16:22:54.586Z,33.60
2018-08-04T16:25:23.061Z,33.80
2018-08-04T16:27:52.771Z,33.80
2018-08-04T16:30:21.209Z,34.00
2018-08-04T16:32:49.609Z,33.80
2018-08-04T16:35:17.993Z,33.80
2018-08-04T16:37:46.582Z,33.80
2018-08-04T16:40:15.990Z,33.90
2018-08-04T16:42:44.472Z,33.90
2018-08-04T16:45:14.004Z,33.80
2018-08-04T16:47:42.531Z,33.60
2018-08-04T16:50:11.094Z,33.40
2018-08-04T16:52:39.544Z,33.30
2018-08-04T16:55:08.973Z,33.10
2018-08-04T16:57:37.391Z,32.90
2018-08-04T17:00:06.862Z,32.70
2018-08-04T17:02:35.360Z,32.70
2018-08-04T17:05:03.900Z,32.40
2018-08-04T17:07:33.635Z,32.40
2018-08-04T17:10:02.138Z,32.40
2018-08-04T17:12:30.592Z,32.30
2018-08-04T17:14:59.037Z,32.30
2018-08-04T17:17:27.430Z,32.20
2018-08-04T17:19:55.858Z,32.10
2018-08-04T17:22:24.435Z,32.00
2018-08-04T17:24:53.007Z,31.90
2018-08-04T17:27:21.376Z,31.80
2018-08-04T17:29:49.888Z,31.60
2018-08-04T17:32:18.349Z,31.50
2018-08-04T17:34:46.865Z,31.50
2018-08-04T17:37:15.400Z,31.40
2018-08-04T17:39:43.817Z,31.20
2018-08-04T17:42:12.388Z,31.00
2018-08-04T17:44:40.990Z,30.90
2018-08-04T17:47:09.572Z,30.70
2018-08-04T17:49:38.086Z,30.70
2018-08-04T17:52:06.633Z,30.60
2018-08-04T17:54:35.229Z,30.50
2018-08-04T17:57:04.309Z,30.40
2018-08-04T17:59:32.904Z,30.30
2018-08-04T18:02:01.417Z,30.20
2018-08-04T18:04:30.026Z,29.90
2018-08-04T18:06:58.532Z,29.80
2018-08-04T18:09:27.066Z,29.70
2018-08-04T18:11:55.550Z,29.70
2018-08-04T18:14:24.154Z,29.60
2018-08-04T18:16:52.886Z,29.60
2018-08-04T18:19:21.358Z,29.50
2018-08-04T18:21:49.902Z,29.40
2018-08-04T18:24:18.355Z,29.30
2018-08-04T18:26:46.789Z,29.20
2018-08-04T18:29:15.462Z,29.10
2018-08-04T18:31:43.994Z,29.00
2018-08-04T18:34:13.388Z,28.90
2018-08-04T18:36:41.954Z,28.90
2018-08-04T18:39:11.146Z,28.60
2018-08-04T18:41:40.019Z,28.50
2018-08-04T18:44:08.905Z,28.50
2018-08-04T18:46:37.366Z,28.40
2018-08-04T18:49:05.865Z,28.20
2018-08-04T18:51:34.373Z,28.20
2018-08-04T18:54:02.906Z,28.10
2018-08-04T18:56:31.381Z,28.10
2018-08-04T18:58:59.977Z,28.00
2018-08-04T19:01:28.593Z,28.00
2018-08-04T19:03:57.186Z,27.90
2018-08-04T19:06:25.744Z,27.80
2018-08-04T19:08:54.308Z,27.60
2018-08-04T19:11:22.841Z,27.50
2018-08-04T19:13:51.320Z,27.50
2018-08-04T19:16:19.908Z,27.40
2018-08-04T19:18:48.913Z,27.30
2018-08-04T19:21:17.727Z,27.30
2018-08-04T19:23:45.986Z,27.30
2018-08-04T19:26:14.216Z,27.30
2018-08-04T19:28:42.472Z,27.20
2018-08-04T19:31:10.780Z,27.20
2018-08-04T19:33:39.051Z,27.20
2018-08-04T19:36:07.307Z,27.10
2018-08-04T19:38:35.886Z,27.00
2018-08-04T19:41:04.100Z,27.00
2018-08-04T19:43:33.242Z,27.00
2018-08-04T19:46:01.415Z,26.80
2018-08-04T19:48:29.643Z,26.80
2018-08-04T19:50:57.821Z,26.70
2018-08-04T19:53:26.026Z,26.70
2018-08-04T19:55:54.356Z,26.60
2018-08-04T19:58:22.599Z,26.50
2018-08-04T20:00:50.829Z,26.50
2018-08-04T20:03:19.013Z,26.40
2018-08-04T20:05:47.263Z,26.40
2018-08-04T20:08:15.507Z,26.50
2018-08-04T20:10:43.741Z,26.40
2018-08-04T20:13:12.012Z,26.20
2018-08-04T20:15:40.249Z,26.20
2018-08-04T20:18:08.503Z,26.20
2018-08-04T20:20:36.750Z,26.20
2018-08-04T20:23:05.018Z,26.10
2018-08-04T20:25:33.274Z,26.00
2018-08-04T20:28:01.551Z,25.90
2018-08-04T20:30:29.725Z,25.90
2018-08-04T20:32:57.924Z,25.80
2018-08-04T20:35:26.136Z,25.80
2018-08-04T20:37:54.336Z,25.80
2018-08-04T20:40:22.573Z,25.90
2018-08-04T20:42:50.856Z,25.90
2018-08-04T20:45:19.065Z,25.80
2018-08-04T20:47:47.336Z,25.90
2018-08-04T20:50:15.644Z,25.90
2018-08-04T20:52:43.913Z,25.80
2018-08-04T20:55:12.109Z,25.80
2018-08-04T20:57:40.413Z,25.90
2018-08-04T21:00:08.672Z,25.80
2018-08-04T21:02:36.931Z,25.80
2018-08-04T21:05:05.249Z,25.70
2018-08-04T21:07:33.467Z,25.60
2018-08-04T21:10:01.743Z,25.40
2018-08-04T21:12:29.964Z,25.40
2018-08-04T21:14:58.247Z,25.40
2018-08-04T21:17:26.504Z,25.30
2018-08-04T21:19:54.882Z,25.20
2018-08-04T21:22:23.099Z,25.20
2018-08-04T21:24:51.344Z,25.10
2018-08-04T21:27:19.586Z,25.10
2018-08-04T21:29:47.748Z,24.90
2018-08-04T21:32:16.001Z,24.80
2018-08-04T21:34:44.229Z,24.80
2018-08-04T21:37:12.462Z,24.80
2018-08-04T21:39:40.656Z,24.80
2018-08-04T21:42:09.017Z,24.80
2018-08-04T21:44:37.218Z,24.70
2018-08-04T21:47:05.456Z,24.70
2018-08-04T21:49:33.704Z,24.60
2018-08-04T21:52:01.945Z,24.60
2018-08-04T21:54:30.164Z,24.60
2018-08-04T21:56:58.369Z,24.50
2018-08-04T21:59:26.641Z,24.50
2018-08-04T22:01:56.251Z,24.50
2018-08-04T22:04:24.849Z,24.30
2018-08-04T22:08:03.780Z,24.40
2018-08-04T22:10:32.002Z,24.30
2018-08-04T22:13:00.290Z,24.20
2018-08-04T22:15:28.452Z,24.20
2018-08-04T22:17:56.740Z,24.20
2018-08-04T22:20:25.688Z,24.00
2018-08-04T22:22:53.994Z,23.90
2018-08-04T22:25:23.552Z,23.80
2018-08-04T22:27:51.923Z,23.80
2018-08-04T22:30:21.142Z,23.70
2018-08-04T22:32:49.918Z,23.70
2018-08-04T22:35:18.253Z,23.60
2018-08-04T22:37:46.512Z,23.60
2018-08-04T22:42:43.870Z,23.60
2018-08-04T22:45:52.147Z,23.50
2018-08-04T22:48:21.152Z,23.50
2018-08-04T22:50:49.363Z,23.40
2018-08-04T22:53:18.138Z,23.40
2018-08-04T22:55:46.371Z,23.30
2018-08-04T22:58:14.639Z,23.20
2018-08-04T23:00:43.973Z,23.20
2018-08-04T23:03:12.798Z,23.20
2018-08-04T23:05:41.121Z,23.20
2018-08-04T23:08:09.958Z,23.20
2018-08-04T23:10:45.170Z,23.20
2018-08-04T23:13:13.780Z,23.20
2018-08-04T23:15:42.053Z,23.20
2018-08-04T23:18:10.496Z,23.30
2018-08-04T23:20:38.701Z,23.20
2018-08-04T23:23:07.696Z,23.20
2018-08-04T23:25:35.997Z,23.10
2018-08-04T23:28:04.329Z,23.10
2018-08-04T23:30:32.584Z,23.10
2018-08-04T23:33:00.814Z,23.10
2018-08-04T23:35:29.075Z,23.10
2018-08-04T23:37:57.310Z,23.20
2018-08-04T23:40:25.572Z,23.20
2018-08-04T23:42:53.810Z,23.10
2018-08-04T23:45:22.074Z,23.10
2018-08-04T23:47:50.297Z,23.10
2018-08-04T23:50:18.611Z,23.00
2018-08-04T23:52:46.785Z,22.90
2018-08-04T23:55:15.018Z,22.80
2018-08-04T23:57:43.319Z,22.80
